createdAt,value
2022-12-15T00:00:47.403Z,14.52
2022-12-15T00:04:08.459Z,15.63
2022-12-15T00:07:28.954Z,15.65
2022-12-15T00:10:50.094Z,15.88
2022-12-15T00:14:10.728Z,14.65
2022-12-15T00:17:31.801Z,16.23
2022-12-15T00:20:53.554Z,15.40
2022-12-15T00:24:14.473Z,15.95
2022-12-15T00:27:35.197Z,15.93
2022-12-15T00:31:02.125Z,15.20
2022-12-15T00:34:23.489Z,16.10
2022-12-15T00:37:44.563Z,15.93
2022-12-15T00:40:46.687Z,14.10
2022-12-15T00:43:49.749Z,15.80
2022-12-15T00:46:54.870Z,15.32
2022-12-15T00:50:16.089Z,14.87
2022-12-15T00:53:40.799Z,15.55
2022-12-15T00:57:01.724Z,15.50
2022-12-15T01:00:24.211Z,15.95
2022-12-15T01:03:45.393Z,15.82
2022-12-15T01:07:06.320Z,15.55
2022-12-15T01:10:27.765Z,14.95
2022-12-15T01:13:50.015Z,16.42
2022-12-15T01:17:11.330Z,15.57
2022-12-15T01:20:15.061Z,15.63
2022-12-15T01:23:17.913Z,15.35
2022-12-15T01:26:20.345Z,15.23
2022-12-15T01:29:22.857Z,15.80
2022-12-15T01:32:25.096Z,15.80
2022-12-15T01:35:27.765Z,15.73
2022-12-15T01:38:30.138Z,16.15
2022-12-15T01:41:32.545Z,16.95
2022-12-15T01:44:36.790Z,15.90
2022-12-15T01:47:39.374Z,16.15
2022-12-15T01:50:55.887Z,15.80
2022-12-15T01:54:20.475Z,16.65
2022-12-15T01:57:27.114Z,15.00
2022-12-15T02:00:30.819Z,15.75
2022-12-15T02:03:34.088Z,16.00
2022-12-15T02:06:37.302Z,15.20
2022-12-15T02:09:40.788Z,16.67
2022-12-15T02:13:19.086Z,17.23
2022-12-15T02:16:27.931Z,17.12
2022-12-15T02:23:16.138Z,17.40
2022-12-15T02:26:56.412Z,17.05
2022-12-15T02:30:19.616Z,16.85
2022-12-15T02:33:30.431Z,16.08
2022-12-15T02:36:37.003Z,17.55
2022-12-15T02:39:39.490Z,17.83
2022-12-15T02:42:52.418Z,18.33
2022-12-15T02:46:01.436Z,18.25
2022-12-15T02:49:23.089Z,17.48
2022-12-15T02:52:37.744Z,18.30
2022-12-15T02:55:52.172Z,17.90
2022-12-15T02:59:03.576Z,16.10
2022-12-15T03:02:07.716Z,15.75
2022-12-15T03:05:13.108Z,17.12
2022-12-15T03:08:15.235Z,18.30
2022-12-15T03:11:17.723Z,17.20
2022-12-15T03:14:20.635Z,16.95
2022-12-15T03:17:23.098Z,17.52
2022-12-15T03:20:25.188Z,17.60
2022-12-15T03:23:27.738Z,18.50
2022-12-15T03:26:30.065Z,19.20
2022-12-15T03:29:32.576Z,18.58
2022-12-15T03:32:34.669Z,17.08
2022-12-15T03:35:37.234Z,19.90
2022-12-15T03:38:39.400Z,18.27
2022-12-15T03:41:41.877Z,19.52
2022-12-15T03:44:44.009Z,19.30
2022-12-15T03:47:46.944Z,17.67
2022-12-15T03:50:50.088Z,18.98
2022-12-15T03:53:53.656Z,19.55
2022-12-15T03:56:55.749Z,19.23
2022-12-15T03:59:58.199Z,17.83
2022-12-15T04:03:00.649Z,18.83
2022-12-15T04:06:03.280Z,18.42
2022-12-15T04:09:05.547Z,19.85
2022-12-15T04:12:12.567Z,18.58
2022-12-15T04:15:15.437Z,19.35
2022-12-15T04:18:17.850Z,19.23
2022-12-15T04:21:20.011Z,18.70
2022-12-15T04:24:41.028Z,18.12
2022-12-15T04:28:02.022Z,18.02
2022-12-15T04:31:32.972Z,19.10
2022-12-15T04:34:54.289Z,19.48
2022-12-15T04:38:15.684Z,19.73
2022-12-15T04:41:39.041Z,17.98
2022-12-15T04:45:00.358Z,20.52
2022-12-15T04:48:21.869Z,18.10
2022-12-15T04:51:42.738Z,18.37
2022-12-15T04:55:03.159Z,18.40
2022-12-15T04:58:28.268Z,20.73
2022-12-15T05:01:48.950Z,20.65
2022-12-15T05:05:12.263Z,20.05
2022-12-15T05:08:33.020Z,18.67
2022-12-15T05:11:54.003Z,19.85
2022-12-15T05:15:14.975Z,18.92
2022-12-15T05:18:36.394Z,19.85
2022-12-15T05:21:57.137Z,18.60
2022-12-15T05:25:17.959Z,18.40
2022-12-15T05:28:38.911Z,18.70
2022-12-15T05:31:54.852Z,18.48
2022-12-15T05:34:57.060Z,19.27
2022-12-15T05:37:59.512Z,18.75
2022-12-15T05:41:01.737Z,21.15
2022-12-15T05:44:04.574Z,21.30
2022-12-15T05:47:08.200Z,19.08
2022-12-15T05:50:10.678Z,20.65
2022-12-15T05:53:12.821Z,21.45
2022-12-15T05:56:15.570Z,21.42
2022-12-15T05:59:19.201Z,21.83
2022-12-15T06:02:22.111Z,21.17
2022-12-15T06:05:24.654Z,21.17
2022-12-15T06:08:31.013Z,20.58
2022-12-15T06:11:33.527Z,19.73
2022-12-15T06:14:36.455Z,20.70
2022-12-15T06:17:39.580Z,21.55
2022-12-15T06:20:41.757Z,21.73
2022-12-15T06:23:45.115Z,21.50
2022-12-15T06:26:49.861Z,20.98
2022-12-15T06:29:53.101Z,21.77
2022-12-15T06:32:55.309Z,20.12
2022-12-15T06:36:01.275Z,21.73
2022-12-15T06:39:05.566Z,21.37
2022-12-15T06:42:08.067Z,23.62
2022-12-15T06:45:10.541Z,21.92
2022-12-15T06:48:12.985Z,21.77
2022-12-15T06:51:18.139Z,21.95
2022-12-15T06:54:20.576Z,23.20
2022-12-15T06:57:22.767Z,24.30
2022-12-15T07:00:25.229Z,22.23
2022-12-15T07:03:27.689Z,24.25
2022-12-15T07:06:36.773Z,22.62
2022-12-15T07:09:39.303Z,23.58
2022-12-15T07:12:41.738Z,22.77
2022-12-15T07:15:46.570Z,26.27
2022-12-15T07:18:49.347Z,24.10
2022-12-15T07:21:52.855Z,23.98
2022-12-15T07:24:55.713Z,20.85
2022-12-15T07:27:57.963Z,20.27
2022-12-15T07:31:06.843Z,18.70
2022-12-15T07:34:09.089Z,21.48
2022-12-15T07:37:11.606Z,19.52
2022-12-15T07:40:13.771Z,19.90
2022-12-15T07:43:16.590Z,21.20
2022-12-15T07:46:19.495Z,20.83
2022-12-15T07:49:22.113Z,22.33
2022-12-15T07:52:24.434Z,22.20
2022-12-15T07:55:50.004Z,21.75
2022-12-15T07:58:49.719Z,22.50
2022-12-15T08:01:53.666Z,21.23
2022-12-15T08:04:56.145Z,21.35
2022-12-15T08:07:58.742Z,21.55
2022-12-15T08:11:13.574Z,22.65
2022-12-15T08:14:17.870Z,22.30
2022-12-15T08:17:21.438Z,22.45
2022-12-15T08:20:24.935Z,23.12
2022-12-15T08:23:29.154Z,23.40
2022-12-15T08:26:31.848Z,23.62
2022-12-15T08:29:51.906Z,23.45
2022-12-15T08:32:54.660Z,21.95
2022-12-15T08:36:03.079Z,23.02
2022-12-15T08:39:05.410Z,22.33
2022-12-15T08:42:07.776Z,20.92
2022-12-15T08:45:11.333Z,24.20
2022-12-15T08:48:14.031Z,22.77
2022-12-15T08:51:17.349Z,22.77
2022-12-15T08:54:20.597Z,23.55
2022-12-15T08:57:22.767Z,23.25
2022-12-15T09:00:25.302Z,24.08
2022-12-15T09:03:27.795Z,23.02
2022-12-15T09:06:33.477Z,23.58
2022-12-15T09:09:35.650Z,23.20
2022-12-15T09:12:38.239Z,24.67
2022-12-15T09:16:08.483Z,22.90
2022-12-15T09:19:06.054Z,24.35
2022-12-15T09:22:08.687Z,24.63
2022-12-15T09:25:11.143Z,23.92
2022-12-15T09:28:14.592Z,26.23
2022-12-15T09:31:22.747Z,23.35
2022-12-15T09:34:25.050Z,22.77
2022-12-15T09:37:27.587Z,22.02
2022-12-15T09:40:30.084Z,23.98
2022-12-15T09:43:35.161Z,24.63
2022-12-15T09:46:50.619Z,24.20
2022-12-15T09:50:05.618Z,23.10
2022-12-15T09:53:45.550Z,24.73
2022-12-15T09:56:42.910Z,24.45
2022-12-15T09:59:55.741Z,25.40
2022-12-15T10:03:31.386Z,25.37
2022-12-15T10:06:50.794Z,22.80
2022-12-15T10:09:53.173Z,25.27
2022-12-15T10:13:02.451Z,25.85
2022-12-15T10:16:31.532Z,25.00
2022-12-15T10:19:51.957Z,24.98
2022-12-15T10:22:57.953Z,26.73
2022-12-15T10:26:20.787Z,26.70
2022-12-15T10:29:33.093Z,27.35
2022-12-15T10:33:03.492Z,28.10
2022-12-15T10:36:11.635Z,26.02
2022-12-15T10:39:16.216Z,27.60
2022-12-15T10:42:22.727Z,26.35
2022-12-15T10:45:35.713Z,25.17
2022-12-15T10:48:37.899Z,28.02
2022-12-15T10:51:47.153Z,27.02
2022-12-15T10:54:52.038Z,28.02
2022-12-15T10:58:03.090Z,29.55
2022-12-15T11:01:19.250Z,27.67
2022-12-15T11:04:32.592Z,27.35
2022-12-15T11:07:36.733Z,28.67
2022-12-15T11:11:08.933Z,27.30
2022-12-15T11:14:24.187Z,26.70
2022-12-15T11:17:40.473Z,28.85
2022-12-15T11:21:11.592Z,28.33
2022-12-15T11:24:20.273Z,27.58
2022-12-15T11:27:43.292Z,27.98
2022-12-15T11:30:54.140Z,28.73
2022-12-15T11:33:57.740Z,26.48
2022-12-15T11:37:34.023Z,25.80
2022-12-15T11:40:39.848Z,27.00
2022-12-15T11:44:18.482Z,28.62
2022-12-15T11:47:27.893Z,29.05
2022-12-15T11:50:51.104Z,27.60
2022-12-15T11:53:56.490Z,27.75
2022-12-15T11:57:09.784Z,28.05
2022-12-15T12:00:18.363Z,27.92
2022-12-15T12:03:48.868Z,28.38
2022-12-15T12:10:29.537Z,28.27
2022-12-15T12:13:44.197Z,26.70
2022-12-15T12:17:03.608Z,28.33
2022-12-15T12:20:38.787Z,25.83
2022-12-15T12:23:47.225Z,27.37
2022-12-15T12:26:58.725Z,28.48
2022-12-15T12:30:18.130Z,27.50
2022-12-15T12:33:36.822Z,27.73
2022-12-15T12:36:42.107Z,28.10
2022-12-15T12:39:46.953Z,28.92
2022-12-15T12:42:57.431Z,28.92
2022-12-15T12:46:13.986Z,28.30
2022-12-15T12:49:26.803Z,27.98
2022-12-15T12:52:38.015Z,27.05
2022-12-15T12:55:43.742Z,28.25
2022-12-15T12:58:48.568Z,29.58
2022-12-15T13:01:53.003Z,28.60
2022-12-15T13:05:00.085Z,30.58
2022-12-15T13:08:06.308Z,29.25
2022-12-15T13:11:58.383Z,28.38
2022-12-15T13:15:10.918Z,28.75
2022-12-15T13:18:17.725Z,30.33
2022-12-15T13:21:51.259Z,30.02
2022-12-15T13:24:56.387Z,29.27
2022-12-15T13:28:01.142Z,29.60
2022-12-15T13:31:27.893Z,31.55
2022-12-15T13:34:38.934Z,29.83
2022-12-15T13:43:58.528Z,28.35
2022-12-15T13:47:19.689Z,28.35
2022-12-15T13:50:38.570Z,29.58
2022-12-15T13:53:51.458Z,30.15
2022-12-15T13:57:15.075Z,30.40
2022-12-15T14:00:21.139Z,31.05
2022-12-15T14:03:24.757Z,30.92
2022-12-15T14:06:36.255Z,29.10
2022-12-15T14:09:42.085Z,28.95
2022-12-15T14:12:45.946Z,29.95
2022-12-15T14:16:16.655Z,30.62
2022-12-15T14:19:19.258Z,30.05
2022-12-15T14:22:28.241Z,29.15
2022-12-15T14:25:31.219Z,29.90
2022-12-15T14:28:39.778Z,32.15
2022-12-15T14:31:46.947Z,30.67
2022-12-15T14:34:51.069Z,30.52
2022-12-15T14:37:57.280Z,30.77
2022-12-15T14:41:03.446Z,30.80
2022-12-15T14:44:37.041Z,30.30
2022-12-15T14:47:40.520Z,29.63
2022-12-15T14:50:47.354Z,30.10
2022-12-15T14:57:20.186Z,29.80
2022-12-15T15:00:35.674Z,31.10
2022-12-15T15:03:40.888Z,29.67
2022-12-15T15:06:47.707Z,30.83
2022-12-15T15:09:53.168Z,32.45
2022-12-15T15:12:58.487Z,32.40
2022-12-15T15:16:06.297Z,32.38
2022-12-15T15:19:19.462Z,31.73
2022-12-15T15:22:40.915Z,30.40
2022-12-15T15:25:56.584Z,32.22
2022-12-15T15:28:59.013Z,30.70
2022-12-15T15:32:16.866Z,32.13
2022-12-15T15:35:20.041Z,30.67
2022-12-15T15:38:28.874Z,29.63
2022-12-15T15:41:33.001Z,31.00
2022-12-15T15:44:35.874Z,29.00
2022-12-15T15:47:38.009Z,29.92
2022-12-15T15:50:40.740Z,32.35
2022-12-15T15:53:43.077Z,30.60
2022-12-15T15:56:45.629Z,31.20
2022-12-15T15:59:47.807Z,30.62
2022-12-15T16:02:51.162Z,28.08
2022-12-15T16:05:53.785Z,29.33
2022-12-15T16:08:58.309Z,27.62
2022-12-15T16:12:00.809Z,28.92
2022-12-15T16:15:06.127Z,27.08
2022-12-15T16:18:08.812Z,25.98
2022-12-15T16:21:16.697Z,26.90
2022-12-15T16:24:19.506Z,27.73
2022-12-15T16:27:22.311Z,27.80
2022-12-15T16:30:26.557Z,27.77
2022-12-15T16:33:28.877Z,26.05
2022-12-15T16:36:32.565Z,24.55
2022-12-15T16:39:35.456Z,23.75
2022-12-15T16:42:38.132Z,25.12
2022-12-15T16:45:44.685Z,24.52
2022-12-15T16:48:47.339Z,23.45
2022-12-15T16:51:52.424Z,21.90
2022-12-15T16:54:54.955Z,23.55
2022-12-15T16:58:05.433Z,21.83
2022-12-15T17:01:10.364Z,21.98
2022-12-15T17:04:14.164Z,21.77
2022-12-15T17:07:20.445Z,21.30
2022-12-15T17:10:26.385Z,20.30
2022-12-15T17:13:39.056Z,21.52
2022-12-15T17:16:44.146Z,21.33
2022-12-15T17:23:16.011Z,18.65
2022-12-15T17:26:29.052Z,20.73
2022-12-15T17:29:33.184Z,19.65
2022-12-15T17:32:35.636Z,19.42
2022-12-15T17:35:37.750Z,19.98
2022-12-15T17:38:40.429Z,20.30
2022-12-15T17:41:59.262Z,19.27
2022-12-15T17:45:06.551Z,17.85
2022-12-15T17:48:09.018Z,19.40
2022-12-15T17:51:16.575Z,19.02
2022-12-15T17:54:19.675Z,18.40
2022-12-15T17:57:22.089Z,19.75
2022-12-15T18:00:27.630Z,18.00
2022-12-15T18:03:31.231Z,17.37
2022-12-15T18:06:33.708Z,19.30
2022-12-15T18:09:36.122Z,19.20
2022-12-15T18:12:38.482Z,20.15
2022-12-15T18:15:41.028Z,20.42
2022-12-15T18:18:43.277Z,19.98
2022-12-15T18:21:45.841Z,20.08
2022-12-15T18:24:49.641Z,19.83
2022-12-15T18:27:53.869Z,20.00
2022-12-15T18:31:02.961Z,19.20
2022-12-15T18:34:12.625Z,19.58
2022-12-15T18:37:19.543Z,17.62
2022-12-15T18:40:27.122Z,17.83
2022-12-15T18:43:34.781Z,17.52
2022-12-15T18:46:37.510Z,18.47
2022-12-15T18:49:39.664Z,19.20
2022-12-15T18:52:42.555Z,17.08
2022-12-15T18:55:46.529Z,18.48
2022-12-15T18:58:48.943Z,17.52
2022-12-15T19:01:51.165Z,17.52
2022-12-15T19:04:53.716Z,17.02
2022-12-15T19:08:09.983Z,15.73
2022-12-15T19:11:18.348Z,15.05
2022-12-15T19:14:39.399Z,15.43
2022-12-15T19:18:00.539Z,14.85
2022-12-15T19:21:48.053Z,13.90
2022-12-15T19:24:56.114Z,13.45
2022-12-15T19:28:00.245Z,15.35
2022-12-15T19:31:02.941Z,14.23
2022-12-15T19:34:05.156Z,14.75
2022-12-15T19:37:15.917Z,14.10
2022-12-15T19:40:25.028Z,14.75
2022-12-15T19:43:27.661Z,14.60
2022-12-15T19:46:29.762Z,14.82
2022-12-15T19:49:32.258Z,15.88
2022-12-15T19:52:34.442Z,15.10
2022-12-15T19:55:36.965Z,15.60
2022-12-15T19:58:39.481Z,13.85
2022-12-15T20:01:42.113Z,13.35
2022-12-15T20:04:45.490Z,14.40
2022-12-15T20:07:49.063Z,13.68
2022-12-15T20:10:53.920Z,14.98
2022-12-15T20:13:56.889Z,15.02
2022-12-15T20:16:59.326Z,13.48
2022-12-15T20:20:01.636Z,13.20
2022-12-15T20:23:14.325Z,14.25
2022-12-15T20:26:17.262Z,14.75
2022-12-15T20:29:25.990Z,13.57
2022-12-15T20:32:28.146Z,12.45
2022-12-15T20:35:33.213Z,14.43
2022-12-15T20:38:36.061Z,14.02
2022-12-15T20:41:38.727Z,13.38
2022-12-15T20:44:41.280Z,12.85
2022-12-15T20:47:46.283Z,14.73
2022-12-15T20:50:49.342Z,14.52
2022-12-15T20:53:53.569Z,14.07
2022-12-15T20:56:57.878Z,14.20
2022-12-15T21:00:00.323Z,12.45
2022-12-15T21:03:02.916Z,13.23
2022-12-15T21:06:07.650Z,13.73
2022-12-15T21:09:13.240Z,13.90
2022-12-15T21:12:18.478Z,14.60
2022-12-15T21:15:23.192Z,14.18
2022-12-15T21:19:17.997Z,14.40
2022-12-15T21:21:52.060Z,13.45
2022-12-15T21:24:57.445Z,13.80
2022-12-15T21:27:59.684Z,13.13
2022-12-15T21:31:02.234Z,12.80
2022-12-15T21:34:04.453Z,12.30
2022-12-15T21:37:22.617Z,13.80
2022-12-15T21:40:28.540Z,12.63
2022-12-15T21:43:33.556Z,12.27
2022-12-15T21:46:35.697Z,12.93
2022-12-15T21:49:38.169Z,13.85
2022-12-15T21:52:40.744Z,12.40
2022-12-15T21:55:46.235Z,12.02
2022-12-15T21:58:52.712Z,12.60
2022-12-15T22:02:00.277Z,12.35
2022-12-15T22:05:03.033Z,11.98
2022-12-15T22:08:17.386Z,13.15
2022-12-15T22:11:25.943Z,13.13
2022-12-15T22:14:32.048Z,12.47
2022-12-15T22:17:34.489Z,11.10
2022-12-15T22:20:37.598Z,13.90
2022-12-15T22:23:40.216Z,12.20
2022-12-15T22:26:43.053Z,12.27
2022-12-15T22:29:46.233Z,13.30
2022-12-15T22:32:48.933Z,13.82
2022-12-15T22:35:53.312Z,12.68
2022-12-15T22:38:57.069Z,10.95
2022-12-15T22:42:01.005Z,12.23
2022-12-15T22:45:04.645Z,10.50
2022-12-15T22:48:07.137Z,12.02
2022-12-15T22:51:12.994Z,11.60
2022-12-15T22:54:20.883Z,10.68
2022-12-15T22:57:26.293Z,12.05
2022-12-15T23:00:28.694Z,12.75
2022-12-15T23:03:31.289Z,11.82
2022-12-15T23:06:34.085Z,12.18
2022-12-15T23:09:36.331Z,12.70
2022-12-15T23:12:38.762Z,11.68
2022-12-15T23:15:59.670Z,12.45
2022-12-15T23:19:02.225Z,12.70
2022-12-15T23:22:04.291Z,11.48
2022-12-15T23:25:07.432Z,10.65
2022-12-15T23:28:10.333Z,9.93
2022-12-15T23:31:12.815Z,9.70
2022-12-15T23:34:15.331Z,11.68
2022-12-15T23:37:17.870Z,9.07
2022-12-15T23:40:21.995Z,9.77
2022-12-15T23:43:26.804Z,9.50
2022-12-15T23:46:29.123Z,9.75
2022-12-15T23:49:31.650Z,9.82
2022-12-15T23:52:33.807Z,8.55
2022-12-15T23:55:36.787Z,9.07
2022-12-15T23:58:40.883Z,8.57
